Time;durP1;ratioP1;P1;durP2;ratioP2;P2;SDS_P1;SDS_P2;PMS_P1;PMS_P2;Temp;Humidity;BMP_temperature;BMP_pressure;BME280_temperature;BME280_humidity;BME280_pressure;Samples;Min_cycle;Max_cycle;Signal;HPM_P1;HPM_P2
2024/03/24 00:01:39;;;;;;;3.13;1.60;;;4.00;99.90;;;;;;4979695;28;20238;-67
2024/03/24 00:04:05;;;;;;;1.70;1.57;;;4.00;99.90;;;;;;4955232;28;20281;-67
2024/03/24 00:06:30;;;;;;;1.60;1.30;;;3.90;99.90;;;;;;4970479;28;20184;-67
2024/03/24 00:08:56;;;;;;;5.17;1.50;;;3.90;99.90;;;;;;4967281;28;20188;-68
2024/03/24 00:11:21;;;;;;;1.63;1.40;;;3.90;99.90;;;;;;4976952;28;20551;-67
2024/03/24 00:13:47;;;;;;;2.40;1.37;;;3.90;99.90;;;;;;4975068;28;20212;-67
2024/03/24 00:16:13;;;;;;;1.87;1.50;;;3.90;99.90;;;;;;4975796;28;20203;-66
2024/03/24 00:18:38;;;;;;;2.70;1.40;;;3.90;99.90;;;;;;4966105;28;20204;-67
2024/03/24 00:21:04;;;;;;;1.63;1.53;;;3.90;99.90;;;;;;4975207;28;20563;-68
2024/03/24 00:23:29;;;;;;;2.20;2.00;;;3.90;99.90;;;;;;4980527;28;20204;-67
2024/03/24 00:25:55;;;;;;;1.50;1.40;;;3.80;99.90;;;;;;4981664;28;20267;-68
2024/03/24 00:28:20;;;;;;;3.03;1.80;;;3.80;99.90;;;;;;4972369;28;20202;-67
2024/03/24 00:30:46;;;;;;;2.20;1.30;;;3.80;99.90;;;;;;4972672;28;20215;-66
2024/03/24 00:33:11;;;;;;;1.93;1.40;;;3.80;99.90;;;;;;4987564;28;20583;-67
2024/03/24 00:35:37;;;;;;;1.70;1.53;;;3.70;99.90;;;;;;4974970;28;20172;-67
2024/03/24 00:38:03;;;;;;;1.77;1.50;;;3.70;99.90;;;;;;4975292;28;20220;-66
2024/03/24 00:40:28;;;;;;;1.50;1.40;;;3.70;99.90;;;;;;4981850;28;20222;-67
2024/03/24 00:42:54;;;;;;;2.17;1.60;;;3.60;99.90;;;;;;4978428;28;20711;-67
2024/03/24 00:45:20;;;;;;;2.37;1.73;;;3.60;99.90;;;;;;4967441;28;20196;-68
2024/03/24 00:47:45;;;;;;;1.63;1.53;;;3.50;99.90;;;;;;4971039;28;20431;-66
2024/03/24 00:50:13;;;;;;;2.43;1.80;;;3.50;99.90;;;;;;4976060;28;20352;-67
2024/03/24 00:52:39;;;;;;;3.60;1.80;;;3.50;99.90;;;;;;4978633;28;20191;-67
2024/03/24 00:55:05;;;;;;;4.23;1.80;;;3.40;99.90;;;;;;4981118;28;20458;-66
2024/03/24 00:57:30;;;;;;;4.30;1.53;;;3.40;99.90;;;;;;4984867;28;20619;-67
2024/03/24 00:59:56;;;;;;;2.53;1.67;;;3.40;99.90;;;;;;4982440;28;20479;-68
2024/03/24 01:02:21;;;;;;;3.93;1.97;;;3.30;99.90;;;;;;4979771;28;20199;-67
2024/03/24 01:04:47;;;;;;;1.90;1.53;;;3.30;99.90;;;;;;4977081;28;20181;-66
2024/03/24 01:07:13;;;;;;;3.13;1.43;;;3.30;99.90;;;;;;4972064;28;20176;-67
2024/03/24 01:09:38;;;;;;;3.83;2.53;;;3.30;99.90;;;;;;4974141;28;20279;-68
2024/03/24 01:12:05;;;;;;;2.03;1.63;;;3.30;99.90;;;;;;4981777;28;20211;-66
2024/03/24 01:14:31;;;;;;;1.83;1.70;;;3.40;99.90;;;;;;4983196;28;20180;-67
2024/03/24 01:16:57;;;;;;;1.53;1.40;;;3.50;99.90;;;;;;4972779;28;20479;-67
2024/03/24 01:19:23;;;;;;;1.60;1.50;;;3.50;99.90;;;;;;4976620;28;20546;-67
2024/03/24 01:21:48;;;;;;;2.23;1.40;;;3.50;99.90;;;;;;4976807;28;20511;-67
2024/03/24 01:24:14;;;;;;;1.23;1.10;;;3.60;99.90;;;;;;4973642;28;20181;-67
2024/03/24 01:26:39;;;;;;;1.60;1.40;;;3.60;99.90;;;;;;4985490;28;20189;-67
2024/03/24 01:29:05;;;;;;;1.40;1.30;;;3.70;99.90;;;;;;4976598;28;20177;-68
2024/03/24 01:31:31;;;;;;;1.67;1.57;;;3.70;99.90;;;;;;4974078;28;20176;-68
2024/03/24 01:33:56;;;;;;;1.63;1.23;;;3.80;99.90;;;;;;4977634;28;20459;-67
2024/03/24 01:36:22;;;;;;;2.20;1.27;;;3.80;99.90;;;;;;4984023;28;20271;-67
2024/03/24 01:38:47;;;;;;;1.20;1.20;;;3.80;99.90;;;;;;4982213;28;20210;-67
2024/03/24 01:41:13;;;;;;;1.53;1.43;;;3.80;99.90;;;;;;4983364;28;20188;-68
2024/03/24 01:43:38;;;;;;;1.87;1.57;;;3.80;99.90;;;;;;4989476;28;20574;-66
2024/03/24 01:46:04;;;;;;;1.90;1.80;;;3.80;99.90;;;;;;4979661;28;20180;-67
2024/03/24 01:48:30;;;;;;;1.80;1.43;;;3.80;99.90;;;;;;4991356;28;20257;-66
2024/03/24 01:50:56;;;;;;;1.97;1.77;;;3.80;99.90;;;;;;4961727;28;20188;-66
2024/03/24 01:53:21;;;;;;;2.07;1.40;;;3.80;99.90;;;;;;4981464;28;20692;-66
2024/03/24 01:55:47;;;;;;;2.03;1.83;;;3.80;99.90;;;;;;4987693;28;20435;-67
2024/03/24 01:58:12;;;;;;;3.90;1.63;;;3.80;99.90;;;;;;4975227;28;20231;-67
2024/03/24 02:00:38;;;;;;;1.47;1.37;;;3.80;99.90;;;;;;4982444;28;20259;-67
2024/03/24 02:03:04;;;;;;;1.40;1.30;;;3.80;99.90;;;;;;4980981;28;20235;-67
2024/03/24 02:05:30;;;;;;;1.57;1.47;;;3.90;99.90;;;;;;4981813;28;20530;-66
2024/03/24 02:07:56;;;;;;;2.00;1.40;;;3.80;99.90;;;;;;4982478;28;20235;-67
2024/03/24 02:10:26;;;;;;;1.20;1.10;;;3.80;99.90;;;;;;4983242;28;20420;-66
2024/03/24 02:12:51;;;;;;;1.40;1.30;;;3.80;99.90;;;;;;4974358;28;20232;-66
2024/03/24 02:15:17;;;;;;;1.10;1.03;;;3.80;99.90;;;;;;4984860;28;20488;-66
2024/03/24 02:17:42;;;;;;;2.00;0.90;;;3.80;99.90;;;;;;4982176;28;20199;-67
2024/03/24 02:20:09;;;;;;;2.90;1.50;;;3.70;99.90;;;;;;4985717;28;20180;-67
2024/03/24 02:22:36;;;;;;;4.20;1.20;;;3.60;99.90;;;;;;4977552;28;20646;-66
2024/03/24 02:25:04;;;;;;;1.67;1.47;;;3.60;99.90;;;;;;4972937;28;20436;-67
2024/03/24 02:27:29;;;;;;;1.50;1.40;;;3.60;99.90;;;;;;4975087;28;20446;-67
2024/03/24 02:29:55;;;;;;;1.77;1.23;;;3.50;99.90;;;;;;4974627;28;20436;-67
2024/03/24 02:32:21;;;;;;;0.90;0.90;;;3.50;99.90;;;;;;4981745;28;20195;-66
2024/03/24 02:34:47;;;;;;;1.10;1.00;;;3.50;99.90;;;;;;4979325;28;20645;-66
2024/03/24 02:37:12;;;;;;;1.63;0.93;;;3.50;99.90;;;;;;4987448;28;20438;-67
2024/03/24 02:39:38;;;;;;;1.67;1.00;;;3.50;99.90;;;;;;4985507;28;20231;-66
2024/03/24 02:42:04;;;;;;;1.40;1.30;;;3.50;99.90;;;;;;4975340;28;20204;-66
2024/03/24 02:44:30;;;;;;;1.47;1.10;;;3.60;99.90;;;;;;4981003;28;20194;-66
2024/03/24 02:46:55;;;;;;;1.20;1.00;;;3.60;99.90;;;;;;4991205;28;20928;-67
2024/03/24 02:49:21;;;;;;;1.57;1.13;;;3.50;99.90;;;;;;4995143;28;20180;-67
2024/03/24 02:51:46;;;;;;;1.53;1.23;;;3.50;99.90;;;;;;4976718;28;20176;-66
2024/03/24 02:54:12;;;;;;;1.50;1.20;;;3.50;99.90;;;;;;4979121;28;20274;-67
2024/03/24 02:56:37;;;;;;;1.10;1.00;;;3.50;99.90;;;;;;4984423;28;20211;-66
2024/03/24 02:59:03;;;;;;;1.90;1.00;;;3.40;99.90;;;;;;4989362;28;20200;-66
2024/03/24 03:01:28;;;;;;;1.20;1.10;;;3.40;99.90;;;;;;4975190;28;20874;-67
2024/03/24 03:03:54;;;;;;;1.93;1.33;;;3.30;99.90;;;;;;4978612;28;20623;-67
2024/03/24 03:06:20;;;;;;;1.00;0.90;;;3.30;99.90;;;;;;4983231;28;20176;-67
2024/03/24 03:08:45;;;;;;;4.20;1.00;;;3.20;99.90;;;;;;4979979;28;20176;-67
2024/03/24 03:11:11;;;;;;;2.50;1.20;;;3.20;99.90;;;;;;4974118;28;20438;-67
2024/03/24 03:13:36;;;;;;;1.10;0.93;;;3.20;99.90;;;;;;4971749;28;20210;-67
2024/03/24 03:16:02;;;;;;;1.33;0.80;;;3.20;99.90;;;;;;4975967;28;20188;-67
2024/03/24 03:18:27;;;;;;;1.47;0.80;;;3.20;99.90;;;;;;4974814;28;20665;-67
2024/03/24 03:20:53;;;;;;;1.37;1.00;;;3.20;99.90;;;;;;4984130;28;20724;-66
2024/03/24 03:23:18;;;;;;;4.00;0.90;;;3.20;99.90;;;;;;4976570;28;20232;-67
2024/03/24 03:25:44;;;;;;;1.90;1.20;;;3.10;99.90;;;;;;4977955;28;20589;-67
2024/03/24 03:28:09;;;;;;;1.20;1.10;;;3.10;99.90;;;;;;4975028;28;20550;-66
2024/03/24 03:30:35;;;;;;;1.43;1.27;;;3.00;99.90;;;;;;4988811;28;20168;-67
2024/03/24 03:33:01;;;;;;;1.00;0.80;;;3.10;99.90;;;;;;4973755;28;20231;-67
2024/03/24 03:35:26;;;;;;;1.40;1.30;;;3.10;99.90;;;;;;4973006;28;20668;-66
2024/03/24 03:37:52;;;;;;;3.13;0.90;;;3.20;99.90;;;;;;4980785;28;20184;-67
2024/03/24 03:40:17;;;;;;;0.87;0.87;;;3.20;99.90;;;;;;4985247;28;20261;-66
2024/03/24 03:42:43;;;;;;;1.30;1.20;;;3.30;99.90;;;;;;4956824;28;20679;-66
2024/03/24 03:45:10;;;;;;;0.90;0.90;;;3.30;99.90;;;;;;4971334;28;20191;-66
2024/03/24 03:47:36;;;;;;;1.23;1.13;;;3.30;99.90;;;;;;4979798;28;20172;-67
2024/03/24 03:50:02;;;;;;;1.10;1.00;;;3.40;99.90;;;;;;4985678;28;20438;-66
2024/03/24 03:52:31;;;;;;;1.30;1.20;;;3.40;99.90;;;;;;4989612;28;20203;-66
2024/03/24 03:54:59;;;;;;;1.30;1.20;;;3.40;99.90;;;;;;4981783;28;20459;-67
2024/03/24 03:57:25;;;;;;;1.50;1.23;;;3.40;99.90;;;;;;4987465;28;20419;-67
2024/03/24 03:59:51;;;;;;;1.87;1.60;;;3.30;99.90;;;;;;4977235;28;20517;-66
2024/03/24 04:02:17;;;;;;;1.43;1.20;;;3.40;99.90;;;;;;4977347;28;20200;-67
2024/03/24 04:04:43;;;;;;;2.23;1.10;;;3.40;99.90;;;;;;4976814;28;20188;-66
2024/03/24 04:07:08;;;;;;;1.53;1.30;;;3.40;99.90;;;;;;4977662;28;20838;-67
2024/03/24 04:09:34;;;;;;;1.73;1.27;;;3.40;99.90;;;;;;4981022;28;20620;-66
2024/03/24 04:11:59;;;;;;;1.50;1.40;;;3.40;99.90;;;;;;4981222;28;20180;-66
2024/03/24 04:14:25;;;;;;;1.93;1.10;;;3.40;99.90;;;;;;4980858;28;20172;-67
2024/03/24 04:16:50;;;;;;;1.30;1.20;;;3.40;99.90;;;;;;4978093;28;20645;-66
2024/03/24 04:19:16;;;;;;;4.33;1.47;;;3.40;99.90;;;;;;4980848;28;20200;-66
2024/03/24 04:21:42;;;;;;;1.23;1.13;;;3.40;99.90;;;;;;4984428;28;20739;-66
2024/03/24 04:24:07;;;;;;;1.00;1.00;;;3.40;99.90;;;;;;4983110;28;20447;-67
2024/03/24 04:26:33;;;;;;;1.23;1.13;;;3.40;99.90;;;;;;4981836;28;20236;-66
2024/03/24 04:28:58;;;;;;;1.30;1.20;;;3.40;99.90;;;;;;4984039;28;20193;-66
2024/03/24 04:31:24;;;;;;;1.23;1.10;;;3.40;99.90;;;;;;4988935;28;20183;-66
2024/03/24 04:33:50;;;;;;;1.53;1.37;;;3.40;99.90;;;;;;4972548;28;20666;-65
2024/03/24 04:36:15;;;;;;;1.60;1.50;;;3.40;99.90;;;;;;4971941;28;20199;-66
2024/03/24 04:38:41;;;;;;;1.70;1.33;;;3.40;99.90;;;;;;4975650;28;20242;-67
2024/03/24 04:41:08;;;;;;;1.30;0.97;;;3.40;99.90;;;;;;4973445;28;20591;-67
2024/03/24 04:43:33;;;;;;;1.43;1.10;;;3.40;99.90;;;;;;4960850;28;20200;-67
2024/03/24 04:45:59;;;;;;;1.17;1.07;;;3.40;99.90;;;;;;4987028;28;20480;-66
2024/03/24 04:48:24;;;;;;;1.37;1.13;;;3.30;99.90;;;;;;4979668;28;20180;-67
2024/03/24 04:50:50;;;;;;;1.17;0.90;;;3.30;99.90;;;;;;4972629;28;20626;-66
2024/03/24 04:53:15;;;;;;;1.17;1.00;;;3.20;99.90;;;;;;4982471;28;20257;-67
2024/03/24 04:55:41;;;;;;;1.17;1.10;;;3.20;99.90;;;;;;4976858;28;20184;-66
2024/03/24 04:58:08;;;;;;;1.03;1.03;;;3.30;99.90;;;;;;4978431;28;20262;-67
2024/03/24 05:00:34;;;;;;;1.10;1.10;;;3.30;99.90;;;;;;4986349;28;20186;-66
2024/03/24 05:02:59;;;;;;;1.20;1.10;;;3.40;99.90;;;;;;4992382;28;20999;-67
2024/03/24 05:05:25;;;;;;;2.13;1.07;;;3.40;99.90;;;;;;4988194;28;20184;-67
2024/03/24 05:07:50;;;;;;;1.37;1.10;;;3.40;99.90;;;;;;4976164;28;20262;-66
2024/03/24 05:10:19;;;;;;;3.63;1.10;;;3.30;99.90;;;;;;4987119;28;20560;-67
2024/03/24 05:12:44;;;;;;;0.90;0.90;;;3.30;99.90;;;;;;4984191;28;20210;-67
2024/03/24 05:15:10;;;;;;;1.50;0.90;;;3.30;99.90;;;;;;4983527;28;20541;-67
2024/03/24 05:17:38;;;;;;;1.57;1.10;;;3.30;99.90;;;;;;4970504;28;20643;-67
2024/03/24 05:20:09;;;;;;;2.97;2.50;;;3.20;99.90;;;;;;4981822;28;20774;-67
2024/03/24 05:22:34;;;;;;;1.30;1.20;;;3.20;99.90;;;;;;4980157;28;20455;-67
2024/03/24 05:24:59;;;;;;;4.80;1.43;;;3.20;99.90;;;;;;4989727;28;20419;-66
2024/03/24 05:27:25;;;;;;;1.87;1.00;;;3.10;99.90;;;;;;4988078;28;20243;-66
2024/03/24 05:29:50;;;;;;;1.93;1.00;;;3.10;99.90;;;;;;4980866;28;20185;-66
2024/03/24 05:32:16;;;;;;;1.40;1.30;;;3.00;99.90;;;;;;4981812;28;20196;-67
2024/03/24 05:34:45;;;;;;;1.10;1.00;;;3.10;99.90;;;;;;4983956;28;20240;-67
2024/03/24 05:37:10;;;;;;;2.70;1.53;;;3.10;99.90;;;;;;4974853;28;20180;-66
2024/03/24 05:39:36;;;;;;;1.10;1.00;;;3.10;99.90;;;;;;4979828;28;20467;-67
2024/03/24 05:42:02;;;;;;;1.47;1.27;;;3.10;99.90;;;;;;4964397;28;20709;-67
2024/03/24 05:44:28;;;;;;;2.20;1.23;;;3.10;99.90;;;;;;4983734;28;20165;-66
2024/03/24 05:46:53;;;;;;;0.97;0.87;;;3.10;99.90;;;;;;4972020;28;20443;-65
2024/03/24 05:49:19;;;;;;;1.57;1.40;;;3.10;99.90;;;;;;4980069;28;20206;-66
2024/03/24 05:51:44;;;;;;;1.50;1.40;;;3.10;99.90;;;;;;4987380;28;20185;-66
2024/03/24 05:54:10;;;;;;;1.67;1.50;;;3.10;99.90;;;;;;4973213;28;20208;-67
2024/03/24 05:56:35;;;;;;;5.33;2.97;;;3.20;99.90;;;;;;4972041;28;20545;-66
2024/03/24 05:59:01;;;;;;;2.50;1.60;;;3.30;99.90;;;;;;4972468;28;20258;-67
2024/03/24 06:01:26;;;;;;;1.47;1.20;;;3.40;99.90;;;;;;4982442;28;20184;-67
2024/03/24 06:03:52;;;;;;;13.40;1.80;;;3.50;99.90;;;;;;4979400;28;20216;-66
2024/03/24 06:06:18;;;;;;;1.60;1.40;;;3.70;99.90;;;;;;4986355;28;20191;-66
2024/03/24 06:08:43;;;;;;;1.43;1.33;;;3.70;99.90;;;;;;4984502;28;20223;-66
2024/03/24 06:11:09;;;;;;;1.20;1.03;;;3.70;99.90;;;;;;4975846;28;20271;-66
2024/03/24 06:13:35;;;;;;;2.07;1.10;;;3.70;99.90;;;;;;4980971;28;20203;-67
2024/03/24 06:16:01;;;;;;;3.30;1.53;;;3.70;99.90;;;;;;4975509;28;20180;-66
2024/03/24 06:18:27;;;;;;;2.40;1.27;;;3.80;99.90;;;;;;4984524;28;20383;-66
2024/03/24 06:20:53;;;;;;;1.63;1.53;;;3.90;99.90;;;;;;4979055;28;20868;-66
2024/03/24 06:23:18;;;;;;;1.90;1.20;;;4.00;99.90;;;;;;4983026;28;20232;-66
2024/03/24 06:25:44;;;;;;;0.87;0.87;;;4.00;99.90;;;;;;4975392;28;20455;-66
2024/03/24 06:28:09;;;;;;;1.43;1.30;;;4.00;99.90;;;;;;4974434;28;20192;-67
2024/03/24 06:30:35;;;;;;;2.40;1.13;;;4.10;99.90;;;;;;4975840;28;20272;-66
2024/03/24 06:33:00;;;;;;;1.93;1.40;;;4.30;99.90;;;;;;4966280;28;20220;-66
2024/03/24 06:35:26;;;;;;;1.80;1.70;;;4.60;99.90;;;;;;4980603;28;20188;-66
2024/03/24 06:37:51;;;;;;;1.57;1.20;;;4.90;99.90;;;;;;4984162;28;20650;-66
2024/03/24 06:40:17;;;;;;;1.20;1.10;;;5.10;99.90;;;;;;4976099;28;20188;-67
2024/03/24 06:42:59;;;;;;;3.57;1.43;;;5.40;99.90;;;;;;4982525;28;20196;-66
2024/03/24 06:45:30;;;;;;;1.07;1.00;;;5.60;99.90;;;;;;4972895;28;20555;-66
2024/03/24 06:47:56;;;;;;;1.53;1.23;;;5.90;99.90;;;;;;4981476;28;20511;-66
2024/03/24 06:50:22;;;;;;;1.40;1.10;;;6.00;99.90;;;;;;4983831;28;20497;-66
2024/03/24 06:52:50;;;;;;;4.17;1.47;;;6.10;99.90;;;;;;4980105;28;20456;-66
2024/03/24 06:55:15;;;;;;;2.17;1.70;;;6.30;99.90;;;;;;4982474;28;20552;-66
2024/03/24 06:57:41;;;;;;;2.33;1.40;;;6.40;99.90;;;;;;4969091;28;20429;-66
2024/03/24 07:00:07;;;;;;;2.43;1.23;;;6.40;99.90;;;;;;4972648;28;20204;-66
2024/03/24 07:02:33;;;;;;;0.80;0.80;;;6.50;99.90;;;;;;4981970;28;20212;-65
2024/03/24 07:04:58;;;;;;;3.10;2.50;;;6.50;99.90;;;;;;4984108;28;20427;-66
2024/03/24 07:07:24;;;;;;;2.83;1.40;;;6.50;99.90;;;;;;4975105;28;20259;-66
2024/03/24 07:09:49;;;;;;;3.17;1.50;;;6.60;99.90;;;;;;4971034;28;20231;-66
2024/03/24 07:12:15;;;;;;;2.50;1.37;;;6.80;99.90;;;;;;4981372;28;20243;-65
2024/03/24 07:14:40;;;;;;;1.27;1.17;;;7.00;99.90;;;;;;4968909;28;20511;-66
2024/03/24 07:17:06;;;;;;;1.67;1.20;;;6.90;99.90;;;;;;4973593;28;20622;-66
2024/03/24 07:19:31;;;;;;;4.20;1.33;;;6.80;99.90;;;;;;4973175;28;20574;-66
2024/03/24 07:21:57;;;;;;;1.63;1.10;;;6.80;99.90;;;;;;4973375;28;20259;-66
2024/03/24 07:24:23;;;;;;;1.30;1.20;;;6.80;99.90;;;;;;4981180;28;20180;-65
2024/03/24 07:26:48;;;;;;;3.13;1.27;;;6.70;99.90;;;;;;4978269;28;20424;-65
2024/03/24 07:29:14;;;;;;;1.23;1.07;;;6.60;99.90;;;;;;4974289;28;20176;-65
2024/03/24 07:31:39;;;;;;;2.30;2.00;;;6.70;99.90;;;;;;4978779;28;20192;-66
2024/03/24 07:34:05;;;;;;;2.10;1.30;;;6.90;99.90;;;;;;4981738;28;20195;-66
2024/03/24 07:36:30;;;;;;;2.50;1.20;;;7.20;99.90;;;;;;4981357;28;20183;-65
2024/03/24 07:38:56;;;;;;;2.63;1.77;;;7.60;99.90;;;;;;4982708;28;20212;-66
2024/03/24 07:41:21;;;;;;;1.10;1.10;;;7.60;99.90;;;;;;4981123;28;20187;-66
2024/03/24 07:43:48;;;;;;;2.00;1.80;;;7.50;99.90;;;;;;4980800;28;20199;-65
2024/03/24 07:46:15;;;;;;;1.47;1.30;;;7.70;99.90;;;;;;4983517;28;20550;-66
2024/03/24 07:48:41;;;;;;;3.90;1.17;;;7.90;99.90;;;;;;4976004;28;20427;-63
2024/03/24 07:51:06;;;;;;;6.50;1.40;;;8.20;99.90;;;;;;4970291;28;20444;-67
2024/03/24 07:53:32;;;;;;;2.33;2.13;;;8.30;99.90;;;;;;4977418;28;20258;-66
2024/03/24 07:55:57;;;;;;;3.70;1.90;;;8.10;99.90;;;;;;4977771;28;20181;-66
2024/03/24 07:58:23;;;;;;;1.93;1.37;;;8.20;99.90;;;;;;4979711;28;20206;-65
2024/03/24 08:00:48;;;;;;;3.03;2.03;;;8.10;99.90;;;;;;4966896;28;20176;-65
2024/03/24 08:03:14;;;;;;;1.40;1.17;;;7.80;99.90;;;;;;4975926;28;20299;-66
2024/03/24 08:05:39;;;;;;;1.20;1.10;;;8.00;99.90;;;;;;4984758;28;20223;-65
2024/03/24 08:08:06;;;;;;;3.33;2.20;;;8.00;99.90;;;;;;4984521;28;20172;-65
2024/03/24 08:10:32;;;;;;;1.97;1.50;;;8.20;99.90;;;;;;4982236;28;20204;-66
2024/03/24 08:12:57;;;;;;;1.87;1.40;;;8.00;99.90;;;;;;4980897;28;20494;-65
2024/03/24 08:15:23;;;;;;;8.70;2.03;;;8.20;99.90;;;;;;4985628;28;20172;-66
2024/03/24 08:17:49;;;;;;;2.03;1.30;;;8.50;99.90;;;;;;4975969;28;20216;-65
2024/03/24 08:20:15;;;;;;;1.10;1.00;;;8.60;99.90;;;;;;4976327;28;20219;-65
2024/03/24 08:22:40;;;;;;;3.50;1.50;;;8.70;99.90;;;;;;4973623;28;20455;-65
2024/03/24 08:25:06;;;;;;;1.33;1.23;;;9.00;99.90;;;;;;4980877;28;20229;-66
2024/03/24 08:27:32;;;;;;;2.40;1.20;;;9.20;99.90;;;;;;4972858;28;20547;-65
2024/03/24 08:29:58;;;;;;;1.50;1.33;;;9.40;99.90;;;;;;4972907;28;20168;-66
2024/03/24 08:32:23;;;;;;;1.20;1.17;;;9.60;99.90;;;;;;4973142;28;20192;-66
2024/03/24 08:34:51;;;;;;;1.37;1.27;;;9.80;99.90;;;;;;4980818;28;20188;-65
2024/03/24 08:37:16;;;;;;;1.60;1.13;;;9.70;99.90;;;;;;4983108;28;20225;-66
2024/03/24 08:39:42;;;;;;;2.43;2.23;;;9.70;99.90;;;;;;4982444;28;20514;-66
2024/03/24 08:42:08;;;;;;;2.60;2.20;;;9.80;99.90;;;;;;4983421;28;20192;-66
2024/03/24 08:44:33;;;;;;;2.10;1.90;;;9.60;99.90;;;;;;4978736;28;20801;-65
2024/03/24 08:46:59;;;;;;;2.27;1.40;;;9.60;99.90;;;;;;4987357;28;20552;-66
2024/03/24 08:49:25;;;;;;;2.73;1.73;;;9.60;99.90;;;;;;4989844;28;20183;-66
2024/03/24 08:51:52;;;;;;;2.20;1.30;;;9.50;99.90;;;;;;4981980;28;20171;-66
2024/03/24 08:54:17;;;;;;;2.60;1.60;;;9.40;99.90;;;;;;4979569;28;21081;-65
2024/03/24 08:56:43;;;;;;;1.40;1.30;;;9.20;99.90;;;;;;4987031;28;20430;-66
2024/03/24 08:59:09;;;;;;;1.20;1.10;;;9.20;99.90;;;;;;4975541;28;20666;-66
2024/03/24 09:01:35;;;;;;;2.17;1.20;;;9.00;99.90;;;;;;4973662;28;20175;-66
2024/03/24 09:04:01;;;;;;;1.73;1.63;;;9.20;99.90;;;;;;4972475;28;20560;-66
2024/03/24 09:06:26;;;;;;;2.83;1.67;;;9.20;99.90;;;;;;4983546;28;20423;-66
2024/03/24 09:08:52;;;;;;;2.00;1.30;;;8.80;99.90;;;;;;4981459;28;20188;-66
2024/03/24 09:11:18;;;;;;;2.60;1.70;;;8.40;99.90;;;;;;4977271;28;20180;-66
2024/03/24 09:13:44;;;;;;;2.10;1.90;;;8.40;99.90;;;;;;4985548;28;20204;-66
2024/03/24 09:16:09;;;;;;;2.23;1.97;;;8.40;99.90;;;;;;4979514;28;21143;-66
2024/03/24 09:18:35;;;;;;;2.00;1.70;;;8.30;99.90;;;;;;4975570;28;20501;-66
2024/03/24 09:21:07;;;;;;;2.07;1.60;;;8.10;99.90;;;;;;4982806;28;20230;-65
2024/03/24 09:23:32;;;;;;;2.73;2.07;;;7.90;99.90;;;;;;4969006;28;20200;-66
2024/03/24 09:25:59;;;;;;;4.13;1.87;;;7.90;99.90;;;;;;4977656;28;20434;-66
2024/03/24 09:28:25;;;;;;;3.97;2.13;;;7.80;99.90;;;;;;4982457;28;20590;-66
2024/03/24 09:31:02;;;;;;;1.80;1.70;;;7.90;99.90;;;;;;4979112;28;20439;-65
2024/03/24 09:33:28;;;;;;;2.93;2.07;;;8.10;99.90;;;;;;4975038;28;20203;-66
2024/03/24 09:35:59;;;;;;;5.00;2.73;;;8.30;99.90;;;;;;4982731;28;20538;-65
2024/03/24 09:38:25;;;;;;;3.33;1.83;;;8.20;99.90;;;;;;4969064;28;20546;-66
2024/03/24 09:40:51;;;;;;;4.80;2.00;;;8.20;99.90;;;;;;4984233;28;20892;-66
2024/03/24 09:43:17;;;;;;;3.57;2.30;;;8.00;99.90;;;;;;4979291;28;20206;-66
2024/03/24 09:45:43;;;;;;;6.53;3.47;;;7.90;99.90;;;;;;4973253;28;20796;-66
2024/03/24 09:48:14;;;;;;;3.60;1.83;;;7.90;99.90;;;;;;4986465;28;20877;-66
2024/03/24 09:50:41;;;;;;;8.30;2.10;;;8.10;99.90;;;;;;4977062;28;20426;-66
2024/03/24 09:53:07;;;;;;;4.70;3.30;;;7.90;99.90;;;;;;4980890;28;20432;-65
2024/03/24 09:55:34;;;;;;;2.07;1.87;;;7.90;99.90;;;;;;4980090;28;20514;-67
2024/03/24 09:58:00;;;;;;;3.63;1.83;;;7.90;99.90;;;;;;4985203;28;20431;-65
2024/03/24 10:00:28;;;;;;;3.50;1.87;;;7.90;99.90;;;;;;4982319;28;20449;-66
2024/03/24 10:02:55;;;;;;;5.53;1.83;;;7.80;99.90;;;;;;4985211;28;20548;-65
2024/03/24 10:05:21;;;;;;;3.90;1.87;;;7.90;99.90;;;;;;4974018;28;20436;-66
2024/03/24 10:07:47;;;;;;;3.23;2.00;;;8.00;99.90;;;;;;4977540;28;20434;-66
2024/03/24 10:10:15;;;;;;;4.60;1.80;;;8.00;99.90;;;;;;4977925;28;20455;-66
2024/03/24 10:12:54;;;;;;;3.40;2.43;;;8.20;99.90;;;;;;4978074;28;20459;-67
2024/03/24 10:15:25;;;;;;;3.03;2.03;;;8.50;99.90;;;;;;4977877;28;20446;-67
2024/03/24 10:18:04;;;;;;;4.67;1.90;;;8.40;99.90;;;;;;4982620;28;20944;-67
2024/03/24 10:20:31;;;;;;;3.60;1.90;;;8.20;99.90;;;;;;4975304;28;20868;-66
2024/03/24 10:22:57;;;;;;;2.20;1.50;;;8.20;99.90;;;;;;4975187;28;20502;-64
2024/03/24 10:25:25;;;;;;;2.80;1.67;;;8.40;99.90;;;;;;4977878;28;20466;-68
2024/03/24 10:27:51;;;;;;;4.30;1.80;;;8.40;99.90;;;;;;4978749;28;20512;-64
2024/03/24 10:30:18;;;;;;;6.50;2.30;;;8.70;99.90;;;;;;4982484;28;20466;-65
2024/03/24 10:32:44;;;;;;;2.50;1.80;;;9.50;99.90;;;;;;4981783;28;20448;-65
2024/03/24 10:35:10;;;;;;;3.70;2.00;;;10.40;99.90;;;;;;4981421;28;20423;-65
2024/03/24 10:37:36;;;;;;;2.60;2.40;;;11.80;99.90;;;;;;4980599;28;20440;-65
2024/03/24 10:40:03;;;;;;;4.17;2.13;;;13.00;99.90;;;;;;4983713;28;20462;-66
2024/03/24 10:42:32;;;;;;;2.50;2.00;;;13.40;99.20;;;;;;4994904;28;20188;-65
2024/03/24 10:45:07;;;;;;;2.60;2.20;;;13.50;96.90;;;;;;4986647;28;20792;-66
2024/03/24 10:47:33;;;;;;;3.17;1.97;;;13.00;97.80;;;;;;4974819;28;20918;-65
2024/03/24 10:49:59;;;;;;;2.70;2.27;;;13.60;97.30;;;;;;4979843;28;20439;-64
2024/03/24 10:52:34;;;;;;;2.40;2.20;;;13.40;96.70;;;;;;4981489;28;20819;-65
2024/03/24 10:55:00;;;;;;;2.40;2.20;;;14.10;95.60;;;;;;4971549;28;20454;-66
2024/03/24 10:57:26;;;;;;;2.77;2.57;;;15.00;91.50;;;;;;4971977;28;20489;-65
2024/03/24 10:59:54;;;;;;;4.67;2.57;;;15.50;87.70;;;;;;4981776;28;20200;-66
2024/03/24 11:02:20;;;;;;;2.83;2.50;;;14.40;87.60;;;;;;4981804;28;20513;-65
2024/03/24 11:04:47;;;;;;;2.50;2.30;;;12.90;92.90;;;;;;4974900;28;20945;-66
2024/03/24 11:07:14;;;;;;;5.47;2.00;;;12.50;95.70;;;;;;4971072;28;20531;-66
2024/03/24 11:09:40;;;;;;;2.70;2.27;;;13.40;94.30;;;;;;4980905;28;20469;-65
2024/03/24 11:12:07;;;;;;;6.20;3.07;;;13.90;90.00;;;;;;4977536;28;20426;-66
2024/03/24 11:14:33;;;;;;;2.70;2.33;;;13.00;90.80;;;;;;4994328;28;20425;-65
2024/03/24 11:16:59;;;;;;;1.93;1.83;;;11.80;96.30;;;;;;4975222;28;20443;-65
2024/03/24 11:19:28;;;;;;;2.73;2.47;;;11.50;99.90;;;;;;4976884;28;20592;-66
2024/03/24 11:21:57;;;;;;;2.90;2.53;;;11.20;99.90;;;;;;4982767;28;20238;-66
2024/03/24 11:24:27;;;;;;;3.40;2.47;;;11.10;99.90;;;;;;4994186;28;20766;-66
2024/03/24 11:26:54;;;;;;;4.60;2.10;;;10.40;99.90;;;;;;4977171;28;20489;-65
2024/03/24 11:29:44;;;;;;;6.43;2.97;;;9.90;99.90;;;;;;4980637;28;20462;-67
2024/03/24 11:32:11;;;;;;;3.43;3.13;;;9.40;99.90;;;;;;4980569;28;20478;-64
2024/03/24 11:34:48;;;;;;;2.93;2.10;;;8.90;99.90;;;;;;4981716;28;20435;-65
2024/03/24 11:37:15;;;;;;;4.03;2.10;;;8.40;99.90;;;;;;4981376;28;20425;-65
2024/03/24 11:39:41;;;;;;;5.60;1.87;;;8.20;99.90;;;;;;4982195;28;20471;-68
2024/03/24 11:42:09;;;;;;;3.90;2.50;;;8.50;99.90;;;;;;4984189;28;20454;-69
2024/03/24 11:44:35;;;;;;;4.10;2.30;;;9.60;99.90;;;;;;4985129;28;20447;-68
2024/03/24 11:47:02;;;;;;;4.00;1.80;;;10.00;99.90;;;;;;4976657;28;20799;-68
2024/03/24 11:49:37;;;;;;;3.30;1.90;;;10.50;99.90;;;;;;4975724;28;20860;-64
2024/03/24 11:52:03;;;;;;;4.30;1.80;;;10.40;99.90;;;;;;4983418;28;20427;-66
2024/03/24 11:54:30;;;;;;;4.53;1.80;;;10.10;99.90;;;;;;4980286;28;20482;-64
2024/03/24 11:56:57;;;;;;;4.03;2.17;;;9.50;99.90;;;;;;4979190;28;20446;-66
2024/03/24 11:59:23;;;;;;;4.40;2.27;;;9.40;99.90;;;;;;4981117;28;20239;-66
2024/03/24 12:01:49;;;;;;;3.83;1.60;;;9.10;99.90;;;;;;4971260;28;20498;-64
2024/03/24 12:04:16;;;;;;;2.13;2.00;;;9.10;99.90;;;;;;4977994;28;20211;-64
2024/03/24 12:06:42;;;;;;;3.57;2.20;;;8.80;99.90;;;;;;4978866;28;20776;-64
2024/03/24 12:09:09;;;;;;;4.10;2.10;;;8.90;99.90;;;;;;4974240;28;20530;-64
2024/03/24 12:11:35;;;;;;;2.27;1.93;;;9.10;99.90;;;;;;4982867;28;20175;-62
2024/03/24 12:14:00;;;;;;;2.57;2.37;;;9.00;99.90;;;;;;4981441;28;20452;-64
2024/03/24 12:16:26;;;;;;;2.30;1.77;;;8.90;99.90;;;;;;4975061;28;20259;-64
2024/03/24 12:18:52;;;;;;;1.70;1.60;;;8.40;99.90;;;;;;4971804;28;20593;-65
2024/03/24 12:21:17;;;;;;;2.23;2.03;;;8.20;99.90;;;;;;4984537;28;20182;-64
2024/03/24 12:23:43;;;;;;;2.23;2.00;;;8.20;99.90;;;;;;4975816;28;20208;-65
2024/03/24 12:26:18;;;;;;;5.90;2.00;;;8.10;99.90;;;;;;4973808;28;20592;-65
2024/03/24 12:28:54;;;;;;;5.37;2.63;;;8.10;99.90;;;;;;4972038;28;20192;-65
2024/03/24 12:31:20;;;;;;;3.00;1.97;;;8.10;99.90;;;;;;4979170;28;20817;-64
2024/03/24 12:33:49;;;;;;;2.00;1.80;;;8.00;99.90;;;;;;4977468;28;20482;-64
2024/03/24 12:36:15;;;;;;;4.33;1.90;;;7.90;99.90;;;;;;4986288;28;20911;-65
2024/03/24 12:38:42;;;;;;;3.67;2.67;;;8.00;99.90;;;;;;4968479;28;20592;-65
2024/03/24 12:41:08;;;;;;;12.70;5.77;;;8.00;99.90;;;;;;4978795;28;20435;-65
2024/03/24 12:43:33;;;;;;;4.70;2.97;;;8.30;99.90;;;;;;4979786;28;20982;-65
2024/03/24 12:45:59;;;;;;;1.83;1.73;;;8.60;99.90;;;;;;4977732;28;20172;-64
2024/03/24 12:48:28;;;;;;;1.90;1.80;;;8.90;99.90;;;;;;4976772;28;20266;-65
2024/03/24 12:50:54;;;;;;;6.87;2.17;;;9.40;99.90;;;;;;4973781;28;20435;-65